<?xml version="1.0" encoding="UTF-8" standalone="no" ?>
<gpx xmlns="http://www.topografix.com/GPX/1/1" xmlns:xsi="http://www.w3.org/2001/XMLSchema-instance" xsi:schemaLocation="http://www.topografix.com/GPX/1/1 http://www.topografix.com/GPX/1/1/gpx.xsd" version="1.1" creator="VisuGPX - https://www.visugpx.com">
  <metadata>
    <name>Course à pied le midi</name>
  </metadata>
  <trk>
    <name><![CDATA[Course à pied le midi_1]]></name>
    <trkseg>
      <trkpt lat="48.72456" lon="7.03855">
        <ele>251.2</ele>
        <time>2024-01-21T11:49:53Z</time>
      </trkpt>
      <trkpt lat="48.72463" lon="7.03881">
        <ele>251.5</ele>
        <time>2024-01-21T11:49:57Z</time>
      </trkpt>
      <trkpt lat="48.72475" lon="7.03904">
        <ele>251.6</ele>
        <time>2024-01-21T11:50:00Z</time>
      </trkpt>
      <trkpt lat="48.72486" lon="7.03929">
        <ele>252</ele>
        <time>2024-01-21T11:50:03Z</time>
      </trkpt>
      <trkpt lat="48.72497" lon="7.03952">
        <ele>252</ele>
        <time>2024-01-21T11:50:06Z</time>
      </trkpt>
      <trkpt lat="48.72507" lon="7.03976">
        <ele>251.5</ele>
        <time>2024-01-21T11:50:09Z</time>
      </trkpt>
      <trkpt lat="48.72516" lon="7.04">
        <ele>250.8</ele>
        <time>2024-01-21T11:50:12Z</time>
      </trkpt>
      <trkpt lat="48.72524" lon="7.04026">
        <ele>250.1</ele>
        <time>2024-01-21T11:50:15Z</time>
      </trkpt>
      <trkpt lat="48.72535" lon="7.04056">
        <ele>249.5</ele>
        <time>2024-01-21T11:50:19Z</time>
      </trkpt>
      <trkpt lat="48.72537" lon="7.04072">
        <ele>249.6</ele>
        <time>2024-01-21T11:50:21Z</time>
      </trkpt>
      <trkpt lat="48.72532" lon="7.04084">
        <ele>249.9</ele>
        <time>2024-01-21T11:50:23Z</time>
      </trkpt>
      <trkpt lat="48.72521" lon="7.0409">
        <ele>250.2</ele>
        <time>2024-01-21T11:50:25Z</time>
      </trkpt>
      <trkpt lat="48.72511" lon="7.04093">
        <ele>250.5</ele>
        <time>2024-01-21T11:50:27Z</time>
      </trkpt>
      <trkpt lat="48.72489" lon="7.04094">
        <ele>251.6</ele>
        <time>2024-01-21T11:50:31Z</time>
      </trkpt>
      <trkpt lat="48.72469" lon="7.04095">
        <ele>252.5</ele>
        <time>2024-01-21T11:50:35Z</time>
      </trkpt>
      <trkpt lat="48.72449" lon="7.04094">
        <ele>253.8</ele>
        <time>2024-01-21T11:50:39Z</time>
      </trkpt>
      <trkpt lat="48.7243" lon="7.04092">
        <ele>255.4</ele>
        <time>2024-01-21T11:50:43Z</time>
      </trkpt>
      <trkpt lat="48.72423" lon="7.04086">
        <ele>255.9</ele>
        <time>2024-01-21T11:50:45Z</time>
      </trkpt>
      <trkpt lat="48.72407" lon="7.04064">
        <ele>256.5</ele>
        <time>2024-01-21T11:50:49Z</time>
      </trkpt>
      <trkpt lat="48.72395" lon="7.0405">
        <ele>257</ele>
        <time>2024-01-21T11:50:52Z</time>
      </trkpt>
      <trkpt lat="48.72386" lon="7.04043">
        <ele>257.2</ele>
        <time>2024-01-21T11:50:54Z</time>
      </trkpt>
      <trkpt lat="48.72373" lon="7.04037">
        <ele>257.5</ele>
        <time>2024-01-21T11:50:57Z</time>
      </trkpt>
      <trkpt lat="48.72368" lon="7.04026">
        <ele>257.5</ele>
        <time>2024-01-21T11:50:59Z</time>
      </trkpt>
      <trkpt lat="48.72375" lon="7.04005">
        <ele>257.2</ele>
        <time>2024-01-21T11:51:02Z</time>
      </trkpt>
      <trkpt lat="48.7239" lon="7.03982">
        <ele>256</ele>
        <time>2024-01-21T11:51:06Z</time>
      </trkpt>
      <trkpt lat="48.72406" lon="7.03962">
        <ele>255</ele>
        <time>2024-01-21T11:51:10Z</time>
      </trkpt>
      <trkpt lat="48.72423" lon="7.03942">
        <ele>253.9</ele>
        <time>2024-01-21T11:51:14Z</time>
      </trkpt>
      <trkpt lat="48.72426" lon="7.03936">
        <ele>253.7</ele>
        <time>2024-01-21T11:51:15Z</time>
      </trkpt>
      <trkpt lat="48.72431" lon="7.03924">
        <ele>253.3</ele>
        <time>2024-01-21T11:51:17Z</time>
      </trkpt>
      <trkpt lat="48.72429" lon="7.03911">
        <ele>253.2</ele>
        <time>2024-01-21T11:51:19Z</time>
      </trkpt>
      <trkpt lat="48.72423" lon="7.03898">
        <ele>253.3</ele>
        <time>2024-01-21T11:51:21Z</time>
      </trkpt>
      <trkpt lat="48.72409" lon="7.03872">
        <ele>253.5</ele>
        <time>2024-01-21T11:51:25Z</time>
      </trkpt>
      <trkpt lat="48.72396" lon="7.03847">
        <ele>253.6</ele>
        <time>2024-01-21T11:51:29Z</time>
      </trkpt>
      <trkpt lat="48.72383" lon="7.03823">
        <ele>254.1</ele>
        <time>2024-01-21T11:51:33Z</time>
      </trkpt>
      <trkpt lat="48.72378" lon="7.03811">
        <ele>254.3</ele>
        <time>2024-01-21T11:51:35Z</time>
      </trkpt>
      <trkpt lat="48.72378" lon="7.03799">
        <ele>254.3</ele>
        <time>2024-01-21T11:51:37Z</time>
      </trkpt>
      <trkpt lat="48.72384" lon="7.03796">
        <ele>254.1</ele>
        <time>2024-01-21T11:51:39Z</time>
      </trkpt>
      <trkpt lat="48.72392" lon="7.03805">
        <ele>253.8</ele>
        <time>2024-01-21T11:51:41Z</time>
      </trkpt>
      <trkpt lat="48.72399" lon="7.03819">
        <ele>253.5</ele>
        <time>2024-01-21T11:51:43Z</time>
      </trkpt>
      <trkpt lat="48.7241" lon="7.03837">
        <ele>253.1</ele>
        <time>2024-01-21T11:51:45Z</time>
      </trkpt>
      <trkpt lat="48.72424" lon="7.0386">
        <ele>252.6</ele>
        <time>2024-01-21T11:51:50Z</time>
      </trkpt>
      <trkpt lat="48.72437" lon="7.03884">
        <ele>252.5</ele>
        <time>2024-01-21T11:51:54Z</time>
      </trkpt>
      <trkpt lat="48.72449" lon="7.03906">
        <ele>252.5</ele>
        <time>2024-01-21T11:51:58Z</time>
      </trkpt>
      <trkpt lat="48.7246" lon="7.03931">
        <ele>252.5</ele>
        <time>2024-01-21T11:52:02Z</time>
      </trkpt>
      <trkpt lat="48.7247" lon="7.03956">
        <ele>252.7</ele>
        <time>2024-01-21T11:52:06Z</time>
      </trkpt>
      <trkpt lat="48.72477" lon="7.03982">
        <ele>252.6</ele>
        <time>2024-01-21T11:52:10Z</time>
      </trkpt>
      <trkpt lat="48.72486" lon="7.04009">
        <ele>251.9</ele>
        <time>2024-01-21T11:52:14Z</time>
      </trkpt>
      <trkpt lat="48.72495" lon="7.04034">
        <ele>251.1</ele>
        <time>2024-01-21T11:52:18Z</time>
      </trkpt>
      <trkpt lat="48.72503" lon="7.04059">
        <ele>250.6</ele>
        <time>2024-01-21T11:52:22Z</time>
      </trkpt>
      <trkpt lat="48.72505" lon="7.04065">
        <ele>250.6</ele>
        <time>2024-01-21T11:52:23Z</time>
      </trkpt>
      <trkpt lat="48.7251" lon="7.04083">
        <ele>250.5</ele>
        <time>2024-01-21T11:52:26Z</time>
      </trkpt>
      <trkpt lat="48.72505" lon="7.04095">
        <ele>250.8</ele>
        <time>2024-01-21T11:52:28Z</time>
      </trkpt>
      <trkpt lat="48.72496" lon="7.04098">
        <ele>251.2</ele>
        <time>2024-01-21T11:52:30Z</time>
      </trkpt>
      <trkpt lat="48.72477" lon="7.04097">
        <ele>252.2</ele>
        <time>2024-01-21T11:52:34Z</time>
      </trkpt>
      <trkpt lat="48.72459" lon="7.04097">
        <ele>253.2</ele>
        <time>2024-01-21T11:52:38Z</time>
      </trkpt>
      <trkpt lat="48.7244" lon="7.04094">
        <ele>254.8</ele>
        <time>2024-01-21T11:52:42Z</time>
      </trkpt>
      <trkpt lat="48.72427" lon="7.04091">
        <ele>255.6</ele>
        <time>2024-01-21T11:52:45Z</time>
      </trkpt>
      <trkpt lat="48.72419" lon="7.04083">
        <ele>256</ele>
        <time>2024-01-21T11:52:47Z</time>
      </trkpt>
      <trkpt lat="48.72405" lon="7.04062">
        <ele>256.6</ele>
        <time>2024-01-21T11:52:51Z</time>
      </trkpt>
      <trkpt lat="48.72389" lon="7.04045">
        <ele>257.2</ele>
        <time>2024-01-21T11:52:55Z</time>
      </trkpt>
      <trkpt lat="48.72385" lon="7.04042">
        <ele>257.2</ele>
        <time>2024-01-21T11:52:56Z</time>
      </trkpt>
      <trkpt lat="48.72373" lon="7.04036">
        <ele>257.5</ele>
        <time>2024-01-21T11:52:59Z</time>
      </trkpt>
      <trkpt lat="48.72367" lon="7.04027">
        <ele>257.6</ele>
        <time>2024-01-21T11:53:01Z</time>
      </trkpt>
      <trkpt lat="48.72366" lon="7.04015">
        <ele>257.5</ele>
        <time>2024-01-21T11:53:03Z</time>
      </trkpt>
      <trkpt lat="48.72371" lon="7.04003">
        <ele>257.2</ele>
        <time>2024-01-21T11:53:05Z</time>
      </trkpt>
      <trkpt lat="48.72381" lon="7.03991">
        <ele>256.6</ele>
        <time>2024-01-21T11:53:07Z</time>
      </trkpt>
      <trkpt lat="48.72398" lon="7.03971">
        <ele>255.6</ele>
        <time>2024-01-21T11:53:11Z</time>
      </trkpt>
      <trkpt lat="48.72414" lon="7.03951">
        <ele>254.4</ele>
        <time>2024-01-21T11:53:15Z</time>
      </trkpt>
      <trkpt lat="48.72427" lon="7.03932">
        <ele>253.5</ele>
        <time>2024-01-21T11:53:19Z</time>
      </trkpt>
      <trkpt lat="48.72429" lon="7.03926">
        <ele>253.4</ele>
        <time>2024-01-21T11:53:20Z</time>
      </trkpt>
      <trkpt lat="48.7243" lon="7.03913">
        <ele>253.1</ele>
        <time>2024-01-21T11:53:22Z</time>
      </trkpt>
      <trkpt lat="48.72424" lon="7.039">
        <ele>253.2</ele>
        <time>2024-01-21T11:53:24Z</time>
      </trkpt>
      <trkpt lat="48.72411" lon="7.03877">
        <ele>253.5</ele>
        <time>2024-01-21T11:53:28Z</time>
      </trkpt>
      <trkpt lat="48.72398" lon="7.03853">
        <ele>253.6</ele>
        <time>2024-01-21T11:53:32Z</time>
      </trkpt>
      <trkpt lat="48.72386" lon="7.03829">
        <ele>254</ele>
        <time>2024-01-21T11:53:36Z</time>
      </trkpt>
      <trkpt lat="48.72378" lon="7.03809">
        <ele>254.3</ele>
        <time>2024-01-21T11:53:39Z</time>
      </trkpt>
      <trkpt lat="48.72378" lon="7.03797">
        <ele>254.3</ele>
        <time>2024-01-21T11:53:41Z</time>
      </trkpt>
      <trkpt lat="48.72383" lon="7.03794">
        <ele>254.1</ele>
        <time>2024-01-21T11:53:43Z</time>
      </trkpt>
      <trkpt lat="48.72396" lon="7.03812">
        <ele>253.6</ele>
        <time>2024-01-21T11:53:46Z</time>
      </trkpt>
      <trkpt lat="48.72405" lon="7.0383">
        <ele>253.3</ele>
        <time>2024-01-21T11:53:49Z</time>
      </trkpt>
      <trkpt lat="48.72413" lon="7.03832">
        <ele>253</ele>
        <time>2024-01-21T11:53:51Z</time>
      </trkpt>
      <trkpt lat="48.72431" lon="7.03819">
        <ele>252.4</ele>
        <time>2024-01-21T11:53:55Z</time>
      </trkpt>
      <trkpt lat="48.72445" lon="7.03807">
        <ele>251.8</ele>
        <time>2024-01-21T11:53:58Z</time>
      </trkpt>
      <trkpt lat="48.72453" lon="7.03798">
        <ele>251.5</ele>
        <time>2024-01-21T11:54:00Z</time>
      </trkpt>
      <trkpt lat="48.72458" lon="7.03782">
        <ele>251.4</ele>
        <time>2024-01-21T11:54:03Z</time>
      </trkpt>
      <trkpt lat="48.72456" lon="7.03767">
        <ele>251.7</ele>
        <time>2024-01-21T11:54:05Z</time>
      </trkpt>
      <trkpt lat="48.72448" lon="7.0374">
        <ele>251.9</ele>
        <time>2024-01-21T11:54:09Z</time>
      </trkpt>
      <trkpt lat="48.7244" lon="7.0371">
        <ele>251.9</ele>
        <time>2024-01-21T11:54:14Z</time>
      </trkpt>
      <trkpt lat="48.7244" lon="7.03684">
        <ele>251.5</ele>
        <time>2024-01-21T11:54:18Z</time>
      </trkpt>
      <trkpt lat="48.72436" lon="7.03671">
        <ele>251.3</ele>
        <time>2024-01-21T11:54:20Z</time>
      </trkpt>
      <trkpt lat="48.7243" lon="7.03663">
        <ele>251.2</ele>
        <time>2024-01-21T11:54:22Z</time>
      </trkpt>
      <trkpt lat="48.72422" lon="7.03657">
        <ele>251.1</ele>
        <time>2024-01-21T11:54:24Z</time>
      </trkpt>
      <trkpt lat="48.72406" lon="7.03647">
        <ele>251.1</ele>
        <time>2024-01-21T11:54:28Z</time>
      </trkpt>
      <trkpt lat="48.724" lon="7.03637">
        <ele>251</ele>
        <time>2024-01-21T11:54:30Z</time>
      </trkpt>
      <trkpt lat="48.72397" lon="7.03625">
        <ele>250.8</ele>
        <time>2024-01-21T11:54:32Z</time>
      </trkpt>
      <trkpt lat="48.72396" lon="7.0361">
        <ele>250.7</ele>
        <time>2024-01-21T11:54:34Z</time>
      </trkpt>
      <trkpt lat="48.72401" lon="7.036">
        <ele>250.6</ele>
        <time>2024-01-21T11:54:36Z</time>
      </trkpt>
      <trkpt lat="48.72412" lon="7.03592">
        <ele>250.4</ele>
        <time>2024-01-21T11:54:39Z</time>
      </trkpt>
      <trkpt lat="48.72429" lon="7.03576">
        <ele>250.3</ele>
        <time>2024-01-21T11:54:43Z</time>
      </trkpt>
      <trkpt lat="48.72447" lon="7.03564">
        <ele>250.5</ele>
        <time>2024-01-21T11:54:47Z</time>
      </trkpt>
      <trkpt lat="48.72459" lon="7.03553">
        <ele>250.8</ele>
        <time>2024-01-21T11:54:50Z</time>
      </trkpt>
      <trkpt lat="48.72475" lon="7.03535">
        <ele>251</ele>
        <time>2024-01-21T11:54:54Z</time>
      </trkpt>
      <trkpt lat="48.72487" lon="7.03523">
        <ele>251.3</ele>
        <time>2024-01-21T11:54:58Z</time>
      </trkpt>
      <trkpt lat="48.72497" lon="7.03536">
        <ele>251.3</ele>
        <time>2024-01-21T11:55:02Z</time>
      </trkpt>
      <trkpt lat="48.72495" lon="7.03549">
        <ele>250.8</ele>
        <time>2024-01-21T11:55:04Z</time>
      </trkpt>
      <trkpt lat="48.72481" lon="7.03573">
        <ele>250.3</ele>
        <time>2024-01-21T11:55:09Z</time>
      </trkpt>
      <trkpt lat="48.72472" lon="7.03588">
        <ele>250.3</ele>
        <time>2024-01-21T11:55:12Z</time>
      </trkpt>
      <trkpt lat="48.72468" lon="7.03598">
        <ele>250.3</ele>
        <time>2024-01-21T11:55:14Z</time>
      </trkpt>
      <trkpt lat="48.72457" lon="7.03627">
        <ele>250.6</ele>
        <time>2024-01-21T11:55:19Z</time>
      </trkpt>
      <trkpt lat="48.72454" lon="7.03636">
        <ele>250.8</ele>
        <time>2024-01-21T11:55:21Z</time>
      </trkpt>
      <trkpt lat="48.72463" lon="7.0366">
        <ele>250.9</ele>
        <time>2024-01-21T11:55:27Z</time>
      </trkpt>
      <trkpt lat="48.72482" lon="7.03654">
        <ele>250.4</ele>
        <time>2024-01-21T11:55:31Z</time>
      </trkpt>
      <trkpt lat="48.725" lon="7.03647">
        <ele>249.8</ele>
        <time>2024-01-21T11:55:35Z</time>
      </trkpt>
      <trkpt lat="48.72521" lon="7.03637">
        <ele>249.2</ele>
        <time>2024-01-21T11:55:40Z</time>
      </trkpt>
      <trkpt lat="48.72529" lon="7.03634">
        <ele>248.9</ele>
        <time>2024-01-21T11:55:42Z</time>
      </trkpt>
      <trkpt lat="48.72538" lon="7.03635">
        <ele>248.6</ele>
        <time>2024-01-21T11:55:44Z</time>
      </trkpt>
      <trkpt lat="48.72545" lon="7.03643">
        <ele>248.4</ele>
        <time>2024-01-21T11:55:46Z</time>
      </trkpt>
      <trkpt lat="48.72547" lon="7.03656">
        <ele>248.3</ele>
        <time>2024-01-21T11:55:48Z</time>
      </trkpt>
      <trkpt lat="48.72541" lon="7.03674">
        <ele>248.6</ele>
        <time>2024-01-21T11:55:51Z</time>
      </trkpt>
      <trkpt lat="48.72535" lon="7.03685">
        <ele>248.8</ele>
        <time>2024-01-21T11:55:53Z</time>
      </trkpt>
      <trkpt lat="48.7252" lon="7.03701">
        <ele>249.2</ele>
        <time>2024-01-21T11:55:57Z</time>
      </trkpt>
      <trkpt lat="48.72517" lon="7.03705">
        <ele>249.3</ele>
        <time>2024-01-21T11:55:58Z</time>
      </trkpt>
      <trkpt lat="48.72514" lon="7.03715">
        <ele>249.5</ele>
        <time>2024-01-21T11:56:00Z</time>
      </trkpt>
      <trkpt lat="48.72521" lon="7.03728">
        <ele>249.2</ele>
        <time>2024-01-21T11:56:03Z</time>
      </trkpt>
      <trkpt lat="48.72529" lon="7.03728">
        <ele>248.9</ele>
        <time>2024-01-21T11:56:05Z</time>
      </trkpt>
      <trkpt lat="48.72538" lon="7.03727">
        <ele>248.6</ele>
        <time>2024-01-21T11:56:07Z</time>
      </trkpt>
      <trkpt lat="48.72545" lon="7.03732">
        <ele>248.4</ele>
        <time>2024-01-21T11:56:09Z</time>
      </trkpt>
      <trkpt lat="48.72551" lon="7.03741">
        <ele>248.2</ele>
        <time>2024-01-21T11:56:11Z</time>
      </trkpt>
      <trkpt lat="48.72557" lon="7.03767">
        <ele>247.9</ele>
        <time>2024-01-21T11:56:15Z</time>
      </trkpt>
      <trkpt lat="48.72568" lon="7.03797">
        <ele>247.9</ele>
        <time>2024-01-21T11:56:20Z</time>
      </trkpt>
      <trkpt lat="48.72579" lon="7.03821">
        <ele>247.8</ele>
        <time>2024-01-21T11:56:24Z</time>
      </trkpt>
      <trkpt lat="48.7259" lon="7.0384">
        <ele>247.7</ele>
        <time>2024-01-21T11:56:28Z</time>
      </trkpt>
      <trkpt lat="48.72597" lon="7.03855">
        <ele>247.6</ele>
        <time>2024-01-21T11:56:31Z</time>
      </trkpt>
      <trkpt lat="48.7261" lon="7.0388">
        <ele>247.4</ele>
        <time>2024-01-21T11:56:36Z</time>
      </trkpt>
      <trkpt lat="48.72622" lon="7.03901">
        <ele>247.2</ele>
        <time>2024-01-21T11:56:40Z</time>
      </trkpt>
      <trkpt lat="48.72634" lon="7.03922">
        <ele>247</ele>
        <time>2024-01-21T11:56:44Z</time>
      </trkpt>
      <trkpt lat="48.72645" lon="7.03944">
        <ele>246.9</ele>
        <time>2024-01-21T11:56:48Z</time>
      </trkpt>
      <trkpt lat="48.72656" lon="7.03966">
        <ele>246.9</ele>
        <time>2024-01-21T11:56:52Z</time>
      </trkpt>
      <trkpt lat="48.72667" lon="7.03988">
        <ele>246.9</ele>
        <time>2024-01-21T11:56:56Z</time>
      </trkpt>
      <trkpt lat="48.72678" lon="7.04015">
        <ele>248.8</ele>
        <time>2024-01-21T11:57:01Z</time>
      </trkpt>
      <trkpt lat="48.7267" lon="7.04029">
        <ele>248.9</ele>
        <time>2024-01-21T11:57:04Z</time>
      </trkpt>
      <trkpt lat="48.7266" lon="7.04029">
        <ele>248.7</ele>
        <time>2024-01-21T11:57:06Z</time>
      </trkpt>
      <trkpt lat="48.72642" lon="7.04023">
        <ele>248.3</ele>
        <time>2024-01-21T11:57:10Z</time>
      </trkpt>
      <trkpt lat="48.72622" lon="7.04013">
        <ele>248.1</ele>
        <time>2024-01-21T11:57:15Z</time>
      </trkpt>
      <trkpt lat="48.72606" lon="7.04006">
        <ele>247.5</ele>
        <time>2024-01-21T11:57:19Z</time>
      </trkpt>
      <trkpt lat="48.72598" lon="7.0401">
        <ele>247.1</ele>
        <time>2024-01-21T11:57:21Z</time>
      </trkpt>
      <trkpt lat="48.72582" lon="7.04028">
        <ele>246.8</ele>
        <time>2024-01-21T11:57:26Z</time>
      </trkpt>
      <trkpt lat="48.72564" lon="7.04046">
        <ele>247</ele>
        <time>2024-01-21T11:57:31Z</time>
      </trkpt>
      <trkpt lat="48.72545" lon="7.04065">
        <ele>246.9</ele>
        <time>2024-01-21T11:57:36Z</time>
      </trkpt>
      <trkpt lat="48.72527" lon="7.04081">
        <ele>247.4</ele>
        <time>2024-01-21T11:57:41Z</time>
      </trkpt>
      <trkpt lat="48.72509" lon="7.04096">
        <ele>248.2</ele>
        <time>2024-01-21T11:57:46Z</time>
      </trkpt>
      <trkpt lat="48.72505" lon="7.04098">
        <ele>248.3</ele>
        <time>2024-01-21T11:57:47Z</time>
      </trkpt>
      <trkpt lat="48.72497" lon="7.04099">
        <ele>248.8</ele>
        <time>2024-01-21T11:57:49Z</time>
      </trkpt>
      <trkpt lat="48.72478" lon="7.04096">
        <ele>249.6</ele>
        <time>2024-01-21T11:57:54Z</time>
      </trkpt>
      <trkpt lat="48.72459" lon="7.04096">
        <ele>250.8</ele>
        <time>2024-01-21T11:57:59Z</time>
      </trkpt>
      <trkpt lat="48.72439" lon="7.04096">
        <ele>252.4</ele>
        <time>2024-01-21T11:58:04Z</time>
      </trkpt>
      <trkpt lat="48.72429" lon="7.04092">
        <ele>253.3</ele>
        <time>2024-01-21T11:58:07Z</time>
      </trkpt>
      <trkpt lat="48.72412" lon="7.04075">
        <ele>254.1</ele>
        <time>2024-01-21T11:58:12Z</time>
      </trkpt>
      <trkpt lat="48.72395" lon="7.04054">
        <ele>254.8</ele>
        <time>2024-01-21T11:58:17Z</time>
      </trkpt>
      <trkpt lat="48.72376" lon="7.04042">
        <ele>255.2</ele>
        <time>2024-01-21T11:58:22Z</time>
      </trkpt>
      <trkpt lat="48.72366" lon="7.04031">
        <ele>255.4</ele>
        <time>2024-01-21T11:58:25Z</time>
      </trkpt>
      <trkpt lat="48.72364" lon="7.04017">
        <ele>255.4</ele>
        <time>2024-01-21T11:58:27Z</time>
      </trkpt>
      <trkpt lat="48.72374" lon="7.03998">
        <ele>254.8</ele>
        <time>2024-01-21T11:58:30Z</time>
      </trkpt>
      <trkpt lat="48.7239" lon="7.03978">
        <ele>253.8</ele>
        <time>2024-01-21T11:58:34Z</time>
      </trkpt>
      <trkpt lat="48.72406" lon="7.03959">
        <ele>252.8</ele>
        <time>2024-01-21T11:58:38Z</time>
      </trkpt>
      <trkpt lat="48.7242" lon="7.0394">
        <ele>251.8</ele>
        <time>2024-01-21T11:58:42Z</time>
      </trkpt>
      <trkpt lat="48.72425" lon="7.0393">
        <ele>251.5</ele>
        <time>2024-01-21T11:58:43Z</time>
      </trkpt>
      <trkpt lat="48.72427" lon="7.03924">
        <ele>251.4</ele>
        <time>2024-01-21T11:58:45Z</time>
      </trkpt>
      <trkpt lat="48.72428" lon="7.03913">
        <ele>251.2</ele>
        <time>2024-01-21T11:58:47Z</time>
      </trkpt>
      <trkpt lat="48.72424" lon="7.03902">
        <ele>251.2</ele>
        <time>2024-01-21T11:58:49Z</time>
      </trkpt>
      <trkpt lat="48.72413" lon="7.03879">
        <ele>251.4</ele>
        <time>2024-01-21T11:58:53Z</time>
      </trkpt>
      <trkpt lat="48.72402" lon="7.03857">
        <ele>251.6</ele>
        <time>2024-01-21T11:58:57Z</time>
      </trkpt>
      <trkpt lat="48.7239" lon="7.03833">
        <ele>251.9</ele>
        <time>2024-01-21T11:59:01Z</time>
      </trkpt>
      <trkpt lat="48.72381" lon="7.03811">
        <ele>252.3</ele>
        <time>2024-01-21T11:59:05Z</time>
      </trkpt>
      <trkpt lat="48.72379" lon="7.038">
        <ele>252.4</ele>
        <time>2024-01-21T11:59:07Z</time>
      </trkpt>
      <trkpt lat="48.72385" lon="7.03792">
        <ele>252.3</ele>
        <time>2024-01-21T11:59:10Z</time>
      </trkpt>
      <trkpt lat="48.72396" lon="7.03807">
        <ele>251.8</ele>
        <time>2024-01-21T11:59:13Z</time>
      </trkpt>
      <trkpt lat="48.72406" lon="7.03826">
        <ele>251.5</ele>
        <time>2024-01-21T11:59:16Z</time>
      </trkpt>
      <trkpt lat="48.72413" lon="7.0383">
        <ele>251.3</ele>
        <time>2024-01-21T11:59:18Z</time>
      </trkpt>
      <trkpt lat="48.72431" lon="7.03821">
        <ele>250.7</ele>
        <time>2024-01-21T11:59:22Z</time>
      </trkpt>
      <trkpt lat="48.72449" lon="7.03805">
        <ele>250</ele>
        <time>2024-01-21T11:59:26Z</time>
      </trkpt>
      <trkpt lat="48.72455" lon="7.03795">
        <ele>249.7</ele>
        <time>2024-01-21T11:59:27Z</time>
      </trkpt>
      <trkpt lat="48.72457" lon="7.03789">
        <ele>249.8</ele>
        <time>2024-01-21T11:59:29Z</time>
      </trkpt>
      <trkpt lat="48.72459" lon="7.03776">
        <ele>249.9</ele>
        <time>2024-01-21T11:59:31Z</time>
      </trkpt>
      <trkpt lat="48.72454" lon="7.03757">
        <ele>250.2</ele>
        <time>2024-01-21T11:59:34Z</time>
      </trkpt>
      <trkpt lat="48.72445" lon="7.03731">
        <ele>250.4</ele>
        <time>2024-01-21T11:59:38Z</time>
      </trkpt>
      <trkpt lat="48.7244" lon="7.03713">
        <ele>250.4</ele>
        <time>2024-01-21T11:59:41Z</time>
      </trkpt>
      <trkpt lat="48.7244" lon="7.03701">
        <ele>250.3</ele>
        <time>2024-01-21T11:59:43Z</time>
      </trkpt>
      <trkpt lat="48.72439" lon="7.03683">
        <ele>250</ele>
        <time>2024-01-21T11:59:46Z</time>
      </trkpt>
      <trkpt lat="48.72434" lon="7.03667">
        <ele>249.9</ele>
        <time>2024-01-21T11:59:49Z</time>
      </trkpt>
      <trkpt lat="48.72426" lon="7.03661">
        <ele>249.8</ele>
        <time>2024-01-21T11:59:51Z</time>
      </trkpt>
      <trkpt lat="48.72408" lon="7.0365">
        <ele>249.8</ele>
        <time>2024-01-21T11:59:56Z</time>
      </trkpt>
      <trkpt lat="48.72398" lon="7.03632">
        <ele>249.6</ele>
        <time>2024-01-21T12:00:00Z</time>
      </trkpt>
      <trkpt lat="48.72395" lon="7.03621">
        <ele>249.5</ele>
        <time>2024-01-21T12:00:02Z</time>
      </trkpt>
      <trkpt lat="48.72398" lon="7.03604">
        <ele>249.3</ele>
        <time>2024-01-21T12:00:05Z</time>
      </trkpt>
      <trkpt lat="48.72418" lon="7.0359">
        <ele>249.1</ele>
        <time>2024-01-21T12:00:10Z</time>
      </trkpt>
      <trkpt lat="48.72435" lon="7.03575">
        <ele>249.1</ele>
        <time>2024-01-21T12:00:14Z</time>
      </trkpt>
      <trkpt lat="48.72453" lon="7.03562">
        <ele>249.4</ele>
        <time>2024-01-21T12:00:18Z</time>
      </trkpt>
      <trkpt lat="48.72465" lon="7.03552">
        <ele>249.7</ele>
        <time>2024-01-21T12:00:21Z</time>
      </trkpt>
      <trkpt lat="48.72479" lon="7.03533">
        <ele>249.9</ele>
        <time>2024-01-21T12:00:25Z</time>
      </trkpt>
      <trkpt lat="48.72482" lon="7.03528">
        <ele>250</ele>
        <time>2024-01-21T12:00:26Z</time>
      </trkpt>
      <trkpt lat="48.72489" lon="7.03521">
        <ele>250.3</ele>
        <time>2024-01-21T12:00:28Z</time>
      </trkpt>
      <trkpt lat="48.72498" lon="7.03527">
        <ele>250.5</ele>
        <time>2024-01-21T12:00:31Z</time>
      </trkpt>
      <trkpt lat="48.72498" lon="7.03541">
        <ele>250.1</ele>
        <time>2024-01-21T12:00:33Z</time>
      </trkpt>
      <trkpt lat="48.72495" lon="7.03553">
        <ele>249.7</ele>
        <time>2024-01-21T12:00:35Z</time>
      </trkpt>
      <trkpt lat="48.72489" lon="7.03563">
        <ele>249.5</ele>
        <time>2024-01-21T12:00:37Z</time>
      </trkpt>
      <trkpt lat="48.72473" lon="7.03587">
        <ele>249.3</ele>
        <time>2024-01-21T12:00:42Z</time>
      </trkpt>
      <trkpt lat="48.72463" lon="7.03609">
        <ele>249.5</ele>
        <time>2024-01-21T12:00:46Z</time>
      </trkpt>
      <trkpt lat="48.72452" lon="7.03636">
        <ele>249.9</ele>
        <time>2024-01-21T12:00:51Z</time>
      </trkpt>
      <trkpt lat="48.72451" lon="7.03642">
        <ele>250</ele>
        <time>2024-01-21T12:00:52Z</time>
      </trkpt>
      <trkpt lat="48.7245" lon="7.03653">
        <ele>250.2</ele>
        <time>2024-01-21T12:00:54Z</time>
      </trkpt>
      <trkpt lat="48.72455" lon="7.03661">
        <ele>250.2</ele>
        <time>2024-01-21T12:00:56Z</time>
      </trkpt>
      <trkpt lat="48.72464" lon="7.03662">
        <ele>250.2</ele>
        <time>2024-01-21T12:00:58Z</time>
      </trkpt>
      <trkpt lat="48.72484" lon="7.03657">
        <ele>249.6</ele>
        <time>2024-01-21T12:01:02Z</time>
      </trkpt>
      <trkpt lat="48.72492" lon="7.03652">
        <ele>249.4</ele>
        <time>2024-01-21T12:01:03Z</time>
      </trkpt>
      <trkpt lat="48.72514" lon="7.03642">
        <ele>248.8</ele>
        <time>2024-01-21T12:01:09Z</time>
      </trkpt>
      <trkpt lat="48.72535" lon="7.03638">
        <ele>248</ele>
        <time>2024-01-21T12:01:14Z</time>
      </trkpt>
      <trkpt lat="48.72543" lon="7.03652">
        <ele>247.8</ele>
        <time>2024-01-21T12:01:17Z</time>
      </trkpt>
      <trkpt lat="48.72543" lon="7.03664">
        <ele>247.9</ele>
        <time>2024-01-21T12:01:19Z</time>
      </trkpt>
      <trkpt lat="48.72538" lon="7.03674">
        <ele>248.1</ele>
        <time>2024-01-21T12:01:21Z</time>
      </trkpt>
      <trkpt lat="48.72524" lon="7.03693">
        <ele>248.6</ele>
        <time>2024-01-21T12:01:25Z</time>
      </trkpt>
      <trkpt lat="48.72514" lon="7.03706">
        <ele>248.9</ele>
        <time>2024-01-21T12:01:28Z</time>
      </trkpt>
      <trkpt lat="48.72511" lon="7.03717">
        <ele>249.1</ele>
        <time>2024-01-21T12:01:30Z</time>
      </trkpt>
      <trkpt lat="48.72515" lon="7.0373">
        <ele>248.9</ele>
        <time>2024-01-21T12:01:33Z</time>
      </trkpt>
      <trkpt lat="48.72528" lon="7.03729">
        <ele>248.6</ele>
        <time>2024-01-21T12:01:36Z</time>
      </trkpt>
      <trkpt lat="48.72536" lon="7.03734">
        <ele>248.3</ele>
        <time>2024-01-21T12:01:38Z</time>
      </trkpt>
      <trkpt lat="48.72547" lon="7.03748">
        <ele>247.9</ele>
        <time>2024-01-21T12:01:41Z</time>
      </trkpt>
      <trkpt lat="48.72557" lon="7.03774">
        <ele>247.9</ele>
        <time>2024-01-21T12:01:45Z</time>
      </trkpt>
      <trkpt lat="48.72567" lon="7.03798">
        <ele>247.9</ele>
        <time>2024-01-21T12:01:49Z</time>
      </trkpt>
      <trkpt lat="48.72578" lon="7.03821">
        <ele>247.8</ele>
        <time>2024-01-21T12:01:53Z</time>
      </trkpt>
      <trkpt lat="48.7259" lon="7.03843">
        <ele>247.7</ele>
        <time>2024-01-21T12:01:57Z</time>
      </trkpt>
      <trkpt lat="48.72595" lon="7.03854">
        <ele>247.6</ele>
        <time>2024-01-21T12:01:59Z</time>
      </trkpt>
      <trkpt lat="48.72607" lon="7.03876">
        <ele>247.5</ele>
        <time>2024-01-21T12:02:03Z</time>
      </trkpt>
      <trkpt lat="48.72619" lon="7.03898">
        <ele>247.3</ele>
        <time>2024-01-21T12:02:07Z</time>
      </trkpt>
      <trkpt lat="48.72631" lon="7.0392">
        <ele>247.1</ele>
        <time>2024-01-21T12:02:11Z</time>
      </trkpt>
      <trkpt lat="48.72644" lon="7.03943">
        <ele>247</ele>
        <time>2024-01-21T12:02:15Z</time>
      </trkpt>
      <trkpt lat="48.72656" lon="7.03965">
        <ele>246.9</ele>
        <time>2024-01-21T12:02:19Z</time>
      </trkpt>
      <trkpt lat="48.72667" lon="7.03989">
        <ele>246.9</ele>
        <time>2024-01-21T12:02:23Z</time>
      </trkpt>
      <trkpt lat="48.72677" lon="7.04012">
        <ele>246.9</ele>
        <time>2024-01-21T12:02:27Z</time>
      </trkpt>
      <trkpt lat="48.72677" lon="7.04022">
        <ele>246.8</ele>
        <time>2024-01-21T12:02:28Z</time>
      </trkpt>
      <trkpt lat="48.72674" lon="7.04026">
        <ele>246.8</ele>
        <time>2024-01-21T12:02:30Z</time>
      </trkpt>
      <trkpt lat="48.72665" lon="7.04028">
        <ele>246.9</ele>
        <time>2024-01-21T12:02:32Z</time>
      </trkpt>
      <trkpt lat="48.72645" lon="7.04022">
        <ele>246.9</ele>
        <time>2024-01-21T12:02:36Z</time>
      </trkpt>
      <trkpt lat="48.7263" lon="7.04016">
        <ele>246.9</ele>
        <time>2024-01-21T12:02:39Z</time>
      </trkpt>
      <trkpt lat="48.72614" lon="7.03999">
        <ele>246.9</ele>
        <time>2024-01-21T12:02:43Z</time>
      </trkpt>
      <trkpt lat="48.7261" lon="7.03994">
        <ele>246.9</ele>
        <time>2024-01-21T12:02:44Z</time>
      </trkpt>
      <trkpt lat="48.72597" lon="7.03972">
        <ele>247</ele>
        <time>2024-01-21T12:02:48Z</time>
      </trkpt>
      <trkpt lat="48.72582" lon="7.03947">
        <ele>247.1</ele>
        <time>2024-01-21T12:02:52Z</time>
      </trkpt>
      <trkpt lat="48.72568" lon="7.03923">
        <ele>247.3</ele>
        <time>2024-01-21T12:02:56Z</time>
      </trkpt>
      <trkpt lat="48.72553" lon="7.03901">
        <ele>247.5</ele>
        <time>2024-01-21T12:03:00Z</time>
      </trkpt>
      <trkpt lat="48.72539" lon="7.03875">
        <ele>247.6</ele>
        <time>2024-01-21T12:03:04Z</time>
      </trkpt>
      <trkpt lat="48.72526" lon="7.03847">
        <ele>247.8</ele>
        <time>2024-01-21T12:03:08Z</time>
      </trkpt>
      <trkpt lat="48.72513" lon="7.03819">
        <ele>247.8</ele>
        <time>2024-01-21T12:03:12Z</time>
      </trkpt>
      <trkpt lat="48.725" lon="7.03791">
        <ele>247.9</ele>
        <time>2024-01-21T12:03:16Z</time>
      </trkpt>
      <trkpt lat="48.7249" lon="7.03764">
        <ele>247.9</ele>
        <time>2024-01-21T12:03:20Z</time>
      </trkpt>
      <trkpt lat="48.72486" lon="7.03753">
        <ele>247.9</ele>
        <time>2024-01-21T12:03:22Z</time>
      </trkpt>
    </trkseg>
  </trk>
</gpx>